createdAt,value
2023-09-23T00:01:43.341Z,14.57
2023-09-23T00:04:11.706Z,6.30
2023-09-23T00:06:41.883Z,8.15
2023-09-23T00:09:11.618Z,7.80
2023-09-23T00:11:41.995Z,7.03
2023-09-23T00:14:11.633Z,8.40
2023-09-23T00:16:40.043Z,9.00
2023-09-23T00:19:09.714Z,5.20
2023-09-23T00:21:38.250Z,8.02
2023-09-23T00:24:09.721Z,5.20
2023-09-23T00:26:37.850Z,5.65
2023-09-23T00:29:06.046Z,6.25
2023-09-23T00:31:34.869Z,5.32
2023-09-23T00:34:03.811Z,5.97
2023-09-23T00:36:32.045Z,7.03
2023-09-23T00:39:04.351Z,7.97
2023-09-23T00:41:33.890Z,7.05
2023-09-23T00:44:02.770Z,5.78
2023-09-23T00:46:31.750Z,5.80
2023-09-23T00:49:00.961Z,7.30
2023-09-23T00:51:31.540Z,6.30
2023-09-23T00:54:03.481Z,7.22
2023-09-23T00:56:37.506Z,7.10
2023-09-23T00:59:07.274Z,7.50
2023-09-23T01:01:35.920Z,9.43
2023-09-23T01:04:05.791Z,7.30
2023-09-23T01:06:34.149Z,7.03
2023-09-23T01:09:11.161Z,7.28
2023-09-23T01:11:42.316Z,7.63
2023-09-23T01:14:10.961Z,6.25
2023-09-23T01:16:40.188Z,10.18
2023-09-23T01:19:08.976Z,9.18
2023-09-23T01:21:37.120Z,8.30
2023-09-23T01:24:07.389Z,9.68
2023-09-23T01:26:37.124Z,8.32
2023-09-23T01:29:08.674Z,7.55
2023-09-23T01:31:37.016Z,8.77
2023-09-23T01:34:06.170Z,10.00
2023-09-23T01:36:34.452Z,9.13
2023-09-23T01:39:05.855Z,9.50
2023-09-23T01:41:35.815Z,9.48
2023-09-23T01:44:05.561Z,9.60
2023-09-23T01:46:34.381Z,10.13
2023-09-23T01:49:06.297Z,9.88
2023-09-23T01:51:34.410Z,11.93
2023-09-23T01:54:04.594Z,11.32
2023-09-23T01:56:34.159Z,12.57
2023-09-23T01:59:04.099Z,11.55
2023-09-23T02:01:32.756Z,12.98
2023-09-23T02:04:02.781Z,10.10
2023-09-23T02:06:33.494Z,12.45
2023-09-23T02:09:02.133Z,12.77
2023-09-23T02:11:31.262Z,16.85
2023-09-23T02:13:59.410Z,12.52
2023-09-23T02:16:28.993Z,11.27
2023-09-23T02:18:57.120Z,11.20
2023-09-23T02:21:28.132Z,13.07
2023-09-23T02:23:57.887Z,13.13
2023-09-23T02:26:26.254Z,11.80
2023-09-23T02:28:54.823Z,10.73
2023-09-23T02:31:22.950Z,12.98
2023-09-23T02:33:52.575Z,12.05
2023-09-23T02:36:20.707Z,12.75
2023-09-23T02:38:49.836Z,11.63
2023-09-23T02:41:18.224Z,17.23
2023-09-23T02:43:46.637Z,12.43
2023-09-23T02:46:16.495Z,13.50
2023-09-23T02:48:44.962Z,12.50
2023-09-23T02:51:14.753Z,13.75
2023-09-23T02:53:45.164Z,12.05
2023-09-23T02:56:14.492Z,14.50
2023-09-23T02:58:44.993Z,13.75
2023-09-23T03:01:16.119Z,12.98
2023-09-23T03:03:45.028Z,14.10
2023-09-23T03:06:16.197Z,12.23
2023-09-23T03:08:49.108Z,14.60
2023-09-23T03:11:19.578Z,12.68
2023-09-23T03:13:50.767Z,14.20
2023-09-23T03:16:29.437Z,13.40
2023-09-23T03:19:11.498Z,12.18
2023-09-23T03:21:42.304Z,17.10
2023-09-23T03:24:11.492Z,13.55
2023-09-23T03:26:41.986Z,12.95
2023-09-23T03:29:10.841Z,12.15
2023-09-23T03:31:39.499Z,12.02
2023-09-23T03:34:08.838Z,13.70
2023-09-23T03:36:37.029Z,12.52
2023-09-23T03:39:06.987Z,12.32
2023-09-23T03:41:37.117Z,13.80
2023-09-23T03:44:05.723Z,11.43
2023-09-23T03:46:34.384Z,11.82
2023-09-23T03:49:02.951Z,13.32
2023-09-23T03:51:32.441Z,13.07
2023-09-23T03:54:00.585Z,13.10
2023-09-23T03:56:30.229Z,14.13
2023-09-23T03:58:58.437Z,13.82
2023-09-23T04:01:26.755Z,13.45
2023-09-23T04:03:55.768Z,13.23
2023-09-23T04:06:24.025Z,13.25
2023-09-23T04:08:52.187Z,14.32
2023-09-23T04:11:20.386Z,12.27
2023-09-23T04:13:49.960Z,13.10
2023-09-23T04:16:18.159Z,13.43
2023-09-23T04:18:47.765Z,13.30
2023-09-23T04:21:16.182Z,12.95
2023-09-23T04:23:44.338Z,13.75
2023-09-23T04:26:14.289Z,11.45
2023-09-23T04:28:42.586Z,12.10
2023-09-23T04:31:14.208Z,12.80
2023-09-23T04:33:42.804Z,11.73
2023-09-23T04:36:12.551Z,11.45
2023-09-23T04:38:40.912Z,11.10
2023-09-23T04:41:09.056Z,11.13
2023-09-23T04:43:37.240Z,12.43
2023-09-23T04:46:07.150Z,10.07
2023-09-23T04:48:36.692Z,9.30
2023-09-23T04:51:04.923Z,9.25
2023-09-23T04:53:33.049Z,9.93
2023-09-23T04:56:01.299Z,8.82
2023-09-23T04:58:31.333Z,7.22
2023-09-23T05:01:00.202Z,6.82
2023-09-23T05:03:28.559Z,6.88
2023-09-23T05:05:58.110Z,4.85
2023-09-23T05:08:26.342Z,7.03
2023-09-23T05:10:54.506Z,4.80
2023-09-23T05:13:24.852Z,4.68
2023-09-23T05:15:54.145Z,5.78
2023-09-23T05:18:22.386Z,6.88
2023-09-23T05:20:50.598Z,6.00
2023-09-23T05:23:24.100Z,6.07
2023-09-23T05:25:52.535Z,6.13
2023-09-23T05:28:21.085Z,6.70
2023-09-23T05:30:49.296Z,8.52
2023-09-23T05:33:18.093Z,7.32
2023-09-23T05:35:46.230Z,8.05
2023-09-23T05:38:14.482Z,6.65
2023-09-23T05:40:43.960Z,5.50
2023-09-23T05:43:12.589Z,6.25
2023-09-23T05:45:41.125Z,6.18
2023-09-23T05:48:09.414Z,5.97
2023-09-23T05:50:38.176Z,5.00
2023-09-23T05:53:06.707Z,4.60
2023-09-23T05:55:34.878Z,4.53
2023-09-23T05:58:04.539Z,4.00
2023-09-23T06:00:32.878Z,4.50
2023-09-23T06:03:01.157Z,4.07
2023-09-23T06:05:29.381Z,5.20
2023-09-23T06:07:57.865Z,4.05
2023-09-23T06:10:26.130Z,3.83
2023-09-23T06:12:54.332Z,3.65
2023-09-23T06:15:23.948Z,3.22
2023-09-23T06:17:52.174Z,2.60
2023-09-23T06:20:20.582Z,3.42
2023-09-23T06:22:49.164Z,3.28
2023-09-23T06:25:17.731Z,3.20
2023-09-23T06:27:47.085Z,3.80
2023-09-23T06:30:16.608Z,3.85
2023-09-23T06:32:48.415Z,5.82
2023-09-23T06:35:17.051Z,3.72
2023-09-23T06:37:45.640Z,4.43
2023-09-23T06:40:13.927Z,5.90
2023-09-23T06:42:42.111Z,5.45
2023-09-23T06:45:11.311Z,5.43
2023-09-23T06:47:39.707Z,5.80
2023-09-23T06:50:10.458Z,5.35
2023-09-23T06:52:38.782Z,5.38
2023-09-23T06:55:07.698Z,6.22
2023-09-23T06:57:36.848Z,4.90
2023-09-23T07:00:09.003Z,11.57
2023-09-23T07:02:38.035Z,7.05
2023-09-23T07:05:06.943Z,6.63
2023-09-23T07:07:36.522Z,6.75
2023-09-23T07:10:05.491Z,6.72
2023-09-23T07:12:33.790Z,9.98
2023-09-23T07:15:01.950Z,6.25
2023-09-23T07:17:30.204Z,7.32
2023-09-23T07:19:58.507Z,7.32
2023-09-23T07:22:26.699Z,6.82
2023-09-23T07:24:56.341Z,6.97
2023-09-23T07:27:25.884Z,8.50
2023-09-23T07:29:54.274Z,7.38
2023-09-23T07:32:22.401Z,6.85
2023-09-23T07:34:50.642Z,8.27
2023-09-23T07:37:18.848Z,6.40
2023-09-23T07:39:47.025Z,10.40
2023-09-23T07:42:16.549Z,8.80
2023-09-23T07:44:44.726Z,9.93
2023-09-23T07:47:12.902Z,6.90
2023-09-23T07:49:41.178Z,7.60
2023-09-23T07:52:09.325Z,7.60
2023-09-23T07:54:39.343Z,8.25
2023-09-23T07:57:07.655Z,5.80
2023-09-23T07:59:37.210Z,6.63
2023-09-23T08:02:05.398Z,8.32
2023-09-23T08:04:33.803Z,9.90
2023-09-23T08:07:02.011Z,9.88
2023-09-23T08:09:30.314Z,5.50
2023-09-23T08:11:58.468Z,6.93
2023-09-23T08:14:27.774Z,6.32
2023-09-23T08:16:57.997Z,6.50
2023-09-23T08:19:26.247Z,9.10
2023-09-23T08:21:54.807Z,6.53
2023-09-23T08:24:22.979Z,7.47
2023-09-23T08:26:51.126Z,7.20
2023-09-23T08:29:19.511Z,7.07
2023-09-23T08:31:47.808Z,8.70
2023-09-23T08:34:18.336Z,7.90
2023-09-23T08:36:46.516Z,7.22
2023-09-23T08:39:17.440Z,7.47
2023-09-23T08:41:53.388Z,8.68
2023-09-23T08:44:24.234Z,7.28
2023-09-23T08:46:54.398Z,5.97
2023-09-23T08:49:24.697Z,6.57
2023-09-23T08:51:57.003Z,7.28
2023-09-23T08:54:29.906Z,7.43
2023-09-23T08:56:58.727Z,8.73
2023-09-23T08:59:28.017Z,8.55
2023-09-23T09:01:56.626Z,11.68
2023-09-23T09:04:27.019Z,10.32
2023-09-23T09:06:56.334Z,9.45
2023-09-23T09:09:25.148Z,10.07
2023-09-23T09:11:56.071Z,7.50
2023-09-23T09:14:24.766Z,7.13
2023-09-23T09:16:53.084Z,9.32
2023-09-23T09:19:21.445Z,8.23
2023-09-23T09:21:52.743Z,8.30
2023-09-23T09:24:20.946Z,9.30
2023-09-23T09:26:50.612Z,9.18
2023-09-23T09:29:18.824Z,7.35
2023-09-23T09:31:50.060Z,6.22
2023-09-23T09:34:25.629Z,7.35
2023-09-23T09:36:58.269Z,5.85
2023-09-23T09:39:33.605Z,4.50
2023-09-23T09:42:07.072Z,7.28
2023-09-23T09:44:36.686Z,6.00
2023-09-23T09:47:05.767Z,8.20
2023-09-23T09:49:35.593Z,6.40
2023-09-23T09:52:07.021Z,4.97
2023-09-23T09:54:37.767Z,7.97
2023-09-23T09:57:08.407Z,8.80
2023-09-23T09:59:38.938Z,6.05
2023-09-23T10:02:08.867Z,5.25
2023-09-23T10:04:37.112Z,4.13
2023-09-23T10:07:09.577Z,7.40
2023-09-23T10:09:39.684Z,4.93
2023-09-23T10:12:09.362Z,9.88
2023-09-23T10:14:40.415Z,6.30
2023-09-23T10:17:10.861Z,5.75
2023-09-23T10:19:42.799Z,7.32
2023-09-23T10:22:19.314Z,6.32
2023-09-23T10:24:48.200Z,7.03
2023-09-23T10:27:22.325Z,7.30
2023-09-23T10:29:51.078Z,6.75
2023-09-23T10:32:20.253Z,6.97
2023-09-23T10:34:49.628Z,6.00
2023-09-23T10:37:30.566Z,6.20
2023-09-23T10:40:05.050Z,6.78
2023-09-23T10:42:35.225Z,6.45
2023-09-23T10:45:04.455Z,5.40
2023-09-23T10:47:32.717Z,9.65
2023-09-23T10:50:01.298Z,4.78
2023-09-23T10:52:30.865Z,7.28
2023-09-23T10:54:59.685Z,5.68
2023-09-23T10:57:28.458Z,6.13
2023-09-23T10:59:57.267Z,6.28
2023-09-23T11:02:26.216Z,6.00
2023-09-23T11:04:56.920Z,7.30
2023-09-23T11:07:26.978Z,7.45
2023-09-23T11:09:57.036Z,9.60
2023-09-23T11:12:29.229Z,8.02
2023-09-23T11:15:00.114Z,5.45
2023-09-23T11:17:30.728Z,6.38
2023-09-23T11:20:00.477Z,7.85
2023-09-23T11:22:29.876Z,7.40
2023-09-23T11:25:00.487Z,5.00
2023-09-23T11:27:29.038Z,4.85
2023-09-23T11:29:57.602Z,7.03
2023-09-23T11:32:27.401Z,5.00
2023-09-23T11:34:58.291Z,5.68
2023-09-23T11:37:28.126Z,4.13
2023-09-23T11:39:58.161Z,5.70
2023-09-23T11:42:29.508Z,6.25
2023-09-23T11:44:58.569Z,6.93
2023-09-23T11:47:27.245Z,5.90
2023-09-23T11:49:55.633Z,7.68
2023-09-23T11:52:24.226Z,6.50
2023-09-23T11:54:52.416Z,5.88
2023-09-23T11:57:20.636Z,7.50
2023-09-23T11:59:50.136Z,4.13
2023-09-23T12:02:18.364Z,7.05
2023-09-23T12:04:48.021Z,3.85
2023-09-23T12:07:16.423Z,4.00
2023-09-23T12:09:44.601Z,6.30
2023-09-23T12:12:13.064Z,3.67
2023-09-23T12:14:43.871Z,2.30
2023-09-23T12:17:15.747Z,5.70
2023-09-23T12:19:45.392Z,2.53
2023-09-23T12:22:17.145Z,4.75
2023-09-23T12:24:46.050Z,2.78
2023-09-23T12:27:14.966Z,5.70
2023-09-23T12:29:44.465Z,3.28
2023-09-23T12:32:15.790Z,4.97
2023-09-23T12:34:45.870Z,2.85
2023-09-23T12:37:15.750Z,2.90
2023-09-23T12:39:44.521Z,3.03
2023-09-23T12:42:12.689Z,3.38
2023-09-23T12:44:42.300Z,1.83
2023-09-23T12:47:10.523Z,5.22
2023-09-23T12:49:41.069Z,6.07
2023-09-23T12:52:09.265Z,4.55
2023-09-23T12:54:37.353Z,3.20
2023-09-23T12:57:05.549Z,3.38
2023-09-23T12:59:33.786Z,3.58
2023-09-23T13:02:01.949Z,4.80
2023-09-23T13:04:30.509Z,6.38
2023-09-23T13:07:00.259Z,3.42
2023-09-23T13:09:28.426Z,5.63
2023-09-23T13:11:56.647Z,3.90
2023-09-23T13:14:24.846Z,3.35
2023-09-23T13:16:53.093Z,4.50
2023-09-23T13:19:21.235Z,3.55
2023-09-23T13:21:49.419Z,3.90
2023-09-23T13:24:18.987Z,4.22
2023-09-23T13:26:47.781Z,3.35
2023-09-23T13:29:16.016Z,4.00
2023-09-23T13:31:44.364Z,4.60
2023-09-23T13:34:12.555Z,3.65
2023-09-23T13:36:40.710Z,4.43
2023-09-23T13:39:10.813Z,3.85
2023-09-23T13:41:40.415Z,2.92
2023-09-23T13:44:08.733Z,1.77
2023-09-23T13:46:38.043Z,3.72
2023-09-23T13:49:06.324Z,3.00
2023-09-23T13:51:34.586Z,4.70
2023-09-23T13:54:03.861Z,2.17
2023-09-23T13:56:32.213Z,1.85
2023-09-23T13:59:01.854Z,5.03
2023-09-23T14:01:30.673Z,3.80
2023-09-23T14:03:59.016Z,5.30
2023-09-23T14:06:27.155Z,4.63
2023-09-23T14:08:55.308Z,3.47
2023-09-23T14:11:23.607Z,4.70
2023-09-23T14:13:51.779Z,2.22
2023-09-23T14:16:22.268Z,6.07
2023-09-23T14:18:50.544Z,5.75
2023-09-23T14:21:19.794Z,4.78
2023-09-23T14:23:47.960Z,4.43
2023-09-23T14:26:16.267Z,3.17
2023-09-23T14:28:46.515Z,4.28
2023-09-23T14:31:14.850Z,3.00
2023-09-23T14:33:44.453Z,8.90
2023-09-23T14:36:12.598Z,4.07
2023-09-23T14:38:40.764Z,3.58
2023-09-23T14:41:09.883Z,5.68
2023-09-23T14:43:38.127Z,4.05
2023-09-23T14:46:07.150Z,3.47
2023-09-23T14:48:35.512Z,4.13
2023-09-23T14:51:05.275Z,3.15
2023-09-23T14:53:33.838Z,3.50
2023-09-23T14:56:02.036Z,6.38
2023-09-23T14:58:30.377Z,5.32
2023-09-23T15:00:58.442Z,4.72
2023-09-23T15:03:27.540Z,3.72
2023-09-23T15:05:55.891Z,4.90
2023-09-23T15:08:25.743Z,10.40
2023-09-23T15:10:54.292Z,3.80
2023-09-23T15:13:22.479Z,5.25
2023-09-23T15:15:50.639Z,6.68
2023-09-23T15:18:19.472Z,4.45
2023-09-23T15:20:47.715Z,3.92
2023-09-23T15:23:15.938Z,6.20
2023-09-23T15:25:45.412Z,5.68
2023-09-23T15:28:14.413Z,3.58
2023-09-23T15:30:43.423Z,4.22
2023-09-23T15:33:11.975Z,10.40
2023-09-23T15:35:40.843Z,5.70
2023-09-23T15:38:09.030Z,5.80
2023-09-23T15:40:37.166Z,3.53
2023-09-23T15:43:06.707Z,8.02
2023-09-23T15:45:34.964Z,6.13
2023-09-23T15:48:03.485Z,5.47
2023-09-23T15:50:31.737Z,3.50
2023-09-23T15:52:59.913Z,5.25
2023-09-23T15:55:28.052Z,4.38
2023-09-23T15:57:57.337Z,5.28
2023-09-23T16:00:27.058Z,5.50
2023-09-23T16:02:56.772Z,6.68
2023-09-23T16:05:26.416Z,3.58
2023-09-23T16:07:54.816Z,3.08
2023-09-23T16:10:23.334Z,3.90
2023-09-23T16:12:51.439Z,8.35
2023-09-23T16:15:19.577Z,3.85
2023-09-23T16:17:49.140Z,6.80
2023-09-23T16:20:17.777Z,7.47
2023-09-23T16:22:45.927Z,6.53
2023-09-23T16:25:14.974Z,3.15
2023-09-23T16:27:45.292Z,3.55
2023-09-23T16:30:14.156Z,3.58
2023-09-23T16:32:42.310Z,4.15
2023-09-23T16:35:12.166Z,4.90
2023-09-23T16:37:40.303Z,4.63
2023-09-23T16:40:10.161Z,5.45
2023-09-23T16:42:38.435Z,6.50
2023-09-23T16:45:07.429Z,5.22
2023-09-23T16:47:35.777Z,6.90
2023-09-23T16:50:04.533Z,4.53
2023-09-23T16:52:34.061Z,2.88
2023-09-23T16:55:02.237Z,2.35
2023-09-23T16:57:30.406Z,4.63
2023-09-23T16:59:58.612Z,3.53
2023-09-23T17:02:27.074Z,2.30
2023-09-23T17:04:55.378Z,2.60
2023-09-23T17:07:23.539Z,2.88
2023-09-23T17:09:53.979Z,2.30
2023-09-23T17:12:22.502Z,2.90
2023-09-23T17:14:50.641Z,2.20
2023-09-23T17:17:18.770Z,2.03
2023-09-23T17:19:47.124Z,2.45
2023-09-23T17:22:15.296Z,2.45
2023-09-23T17:24:43.420Z,1.67
2023-09-23T17:27:12.945Z,3.38
2023-09-23T17:29:41.122Z,2.50
2023-09-23T17:32:09.291Z,2.55
2023-09-23T17:34:37.398Z,2.92
2023-09-23T17:37:05.603Z,3.15
2023-09-23T17:39:33.874Z,2.53
2023-09-23T17:42:02.049Z,3.60
2023-09-23T17:44:31.687Z,2.33
2023-09-23T17:46:59.888Z,1.88
2023-09-23T17:49:29.796Z,4.05
2023-09-23T17:51:58.141Z,2.67
2023-09-23T17:54:26.266Z,3.38
2023-09-23T17:56:54.740Z,4.95
2023-09-23T17:59:22.908Z,1.83
2023-09-23T18:01:52.479Z,1.77
2023-09-23T18:04:20.716Z,2.60
2023-09-23T18:06:49.552Z,3.42
2023-09-23T18:09:17.676Z,3.25
2023-09-23T18:11:45.978Z,4.00
2023-09-23T18:14:14.212Z,6.82
2023-09-23T18:16:42.389Z,2.38
2023-09-23T18:19:11.935Z,3.33
2023-09-23T18:21:42.097Z,2.45
2023-09-23T18:24:11.561Z,4.00
2023-09-23T18:26:40.356Z,4.32
2023-09-23T18:29:08.744Z,3.15
2023-09-23T18:31:36.942Z,2.05
2023-09-23T18:34:05.529Z,4.95
2023-09-23T18:36:35.507Z,4.00
2023-09-23T18:39:04.376Z,3.80
2023-09-23T18:41:32.691Z,5.40
2023-09-23T18:44:01.127Z,4.82
2023-09-23T18:46:29.269Z,5.03
2023-09-23T18:48:57.521Z,5.47
2023-09-23T18:51:25.962Z,5.03
2023-09-23T18:53:55.472Z,3.05
2023-09-23T18:56:24.558Z,4.88
2023-09-23T18:58:52.679Z,4.72
2023-09-23T19:01:20.991Z,4.30
2023-09-23T19:03:49.405Z,5.47
2023-09-23T19:06:17.792Z,4.30
2023-09-23T19:08:45.956Z,4.07
2023-09-23T19:11:15.482Z,5.03
2023-09-23T19:13:43.608Z,4.25
2023-09-23T19:16:11.776Z,6.35
2023-09-23T19:18:39.957Z,6.78
2023-09-23T19:21:08.080Z,6.43
2023-09-23T19:23:38.224Z,8.38
2023-09-23T19:26:06.367Z,6.57
2023-09-23T19:28:37.288Z,5.63
2023-09-23T19:31:05.387Z,9.40
2023-09-23T19:33:33.561Z,5.60
2023-09-23T19:36:01.674Z,9.50
2023-09-23T19:38:30.098Z,5.72
2023-09-23T19:40:58.368Z,4.13
2023-09-23T19:43:27.531Z,5.07
2023-09-23T19:45:57.555Z,5.97
2023-09-23T19:48:25.860Z,7.03
2023-09-23T19:50:54.258Z,5.55
2023-09-23T19:53:22.472Z,3.90
2023-09-23T19:55:50.964Z,7.25
2023-09-23T19:58:19.957Z,6.82
2023-09-23T20:00:48.984Z,6.32
2023-09-23T20:03:18.937Z,7.18
2023-09-23T20:05:48.373Z,5.20
2023-09-23T20:08:19.208Z,6.85
2023-09-23T20:10:48.047Z,7.05
2023-09-23T20:13:16.154Z,5.80
2023-09-23T20:15:44.301Z,7.80
2023-09-23T20:18:12.623Z,7.30
2023-09-23T20:20:43.531Z,9.27
2023-09-23T20:23:11.804Z,6.18
2023-09-23T20:25:39.975Z,6.43
2023-09-23T20:28:08.505Z,8.93
2023-09-23T20:30:36.800Z,4.88
2023-09-23T20:33:06.339Z,5.03
2023-09-23T20:35:34.760Z,8.32
2023-09-23T20:38:04.309Z,5.93
2023-09-23T20:40:33.621Z,7.78
2023-09-23T20:43:03.116Z,5.78
2023-09-23T20:45:31.306Z,5.45
2023-09-23T20:47:59.566Z,6.43
2023-09-23T20:50:29.091Z,8.45
2023-09-23T20:52:58.682Z,7.25
2023-09-23T20:55:29.943Z,7.03
2023-09-23T20:57:58.130Z,5.78
2023-09-23T21:00:26.291Z,7.90
2023-09-23T21:02:54.572Z,8.50
2023-09-23T21:05:24.619Z,8.85
2023-09-23T21:07:53.382Z,7.13
2023-09-23T21:10:21.726Z,7.97
2023-09-23T21:12:52.380Z,6.82
2023-09-23T21:15:20.522Z,5.30
2023-09-23T21:17:48.846Z,8.77
2023-09-23T21:20:17.143Z,5.70
2023-09-23T21:22:46.693Z,5.75
2023-09-23T21:25:15.118Z,4.93
2023-09-23T21:27:43.845Z,6.53
2023-09-23T21:30:14.470Z,5.45
2023-09-23T21:32:42.725Z,7.47
2023-09-23T21:35:11.980Z,7.78
2023-09-23T21:37:40.271Z,5.50
2023-09-23T21:40:10.355Z,5.70
2023-09-23T21:42:38.547Z,6.95
2023-09-23T21:45:07.788Z,7.95
2023-09-23T21:47:37.287Z,5.47
2023-09-23T21:50:06.734Z,8.05
2023-09-23T21:52:34.911Z,6.05
2023-09-23T21:55:04.015Z,6.13
2023-09-23T21:57:34.389Z,6.50
2023-09-23T22:00:14.776Z,9.05
2023-09-23T22:02:44.504Z,6.88
2023-09-23T22:05:12.725Z,6.05
2023-09-23T22:07:40.836Z,6.63
2023-09-23T22:10:10.089Z,6.22
2023-09-23T22:12:38.880Z,8.52
2023-09-23T22:15:08.237Z,5.50
2023-09-23T22:17:36.424Z,6.07
2023-09-23T22:20:09.413Z,5.35
2023-09-23T22:22:39.227Z,7.22
2023-09-23T22:25:12.656Z,7.05
2023-09-23T22:27:40.831Z,8.13
2023-09-23T22:30:14.669Z,10.05
2023-09-23T22:32:44.465Z,7.88
2023-09-23T22:35:14.638Z,7.90
2023-09-23T22:37:42.919Z,9.77
2023-09-23T22:40:15.119Z,6.32
2023-09-23T22:42:43.632Z,8.27
2023-09-23T22:45:23.525Z,6.90
2023-09-23T22:48:00.511Z,7.50
2023-09-23T22:50:30.218Z,5.82
2023-09-23T22:52:59.052Z,7.03
2023-09-23T22:55:27.261Z,6.97
2023-09-23T22:57:55.685Z,6.00
2023-09-23T23:00:26.959Z,4.70
2023-09-23T23:02:57.701Z,7.28
2023-09-23T23:05:27.044Z,4.88
2023-09-23T23:07:58.525Z,4.85
2023-09-23T23:10:26.847Z,5.38
2023-09-23T23:12:55.029Z,6.07
2023-09-23T23:15:24.462Z,9.07
2023-09-23T23:17:53.025Z,5.03
2023-09-23T23:20:24.859Z,5.18
2023-09-23T23:22:54.203Z,5.85
2023-09-23T23:25:25.324Z,6.18
2023-09-23T23:27:53.833Z,5.13
2023-09-23T23:30:22.554Z,6.15
2023-09-23T23:32:53.227Z,6.97
2023-09-23T23:35:23.709Z,5.80
2023-09-23T23:37:52.887Z,5.57
2023-09-23T23:40:22.557Z,7.70
2023-09-23T23:42:52.289Z,5.50
2023-09-23T23:45:22.494Z,6.93
2023-09-23T23:47:54.946Z,4.80
2023-09-23T23:50:23.966Z,5.10
2023-09-23T23:52:52.823Z,7.38
2023-09-23T23:55:21.066Z,6.13
2023-09-23T23:57:49.983Z,4.80
